sensor_id;sensor_type;location;lat;lon;timestamp;P1;durP1;ratioP1;P2;durP2;ratioP2
56670;SDS011;42545;50.054;8.306;2022-07-29T00:01:26;2.22;;;1.50;;
56670;SDS011;42545;50.054;8.306;2022-07-29T00:03:53;2.33;;;1.50;;
56670;SDS011;42545;50.054;8.306;2022-07-29T00:06:20;3.13;;;1.50;;
56670;SDS011;42545;50.054;8.306;2022-07-29T00:08:47;3.08;;;1.30;;
56670;SDS011;42545;50.054;8.306;2022-07-29T00:11:13;2.53;;;1.45;;
56670;SDS011;42545;50.054;8.306;2022-07-29T00:13:43;6.32;;;1.75;;
56670;SDS011;42545;50.054;8.306;2022-07-29T00:16:10;3.92;;;1.90;;
56670;SDS011;42545;50.054;8.306;2022-07-29T00:18:36;6.35;;;2.10;;
56670;SDS011;42545;50.054;8.306;2022-07-29T00:21:04;4.20;;;2.00;;
56670;SDS011;42545;50.054;8.306;2022-07-29T00:23:31;3.58;;;1.70;;
56670;SDS011;42545;50.054;8.306;2022-07-29T00:25:57;6.03;;;1.83;;
56670;SDS011;42545;50.054;8.306;2022-07-29T00:28:24;4.70;;;1.70;;
56670;SDS011;42545;50.054;8.306;2022-07-29T00:30:52;6.07;;;2.00;;
56670;SDS011;42545;50.054;8.306;2022-07-29T00:33:19;2.60;;;1.70;;
56670;SDS011;42545;50.054;8.306;2022-07-29T00:35:47;3.65;;;1.70;;
56670;SDS011;42545;50.054;8.306;2022-07-29T00:38:13;2.63;;;1.48;;
56670;SDS011;42545;50.054;8.306;2022-07-29T00:40:42;2.55;;;1.40;;
56670;SDS011;42545;50.054;8.306;2022-07-29T00:43:12;1.77;;;1.58;;
56670;SDS011;42545;50.054;8.306;2022-07-29T00:45:39;2.85;;;1.55;;
56670;SDS011;42545;50.054;8.306;2022-07-29T00:48:07;1.80;;;1.30;;
56670;SDS011;42545;50.054;8.306;2022-07-29T00:50:35;1.30;;;1.10;;
56670;SDS011;42545;50.054;8.306;2022-07-29T00:53:03;2.15;;;1.40;;
56670;SDS011;42545;50.054;8.306;2022-07-29T00:55:31;1.17;;;1.00;;
56670;SDS011;42545;50.054;8.306;2022-07-29T00:57:58;1.45;;;1.35;;
56670;SDS011;42545;50.054;8.306;2022-07-29T01:00:27;1.42;;;1.10;;
56670;SDS011;42545;50.054;8.306;2022-07-29T01:02:55;2.00;;;1.30;;
56670;SDS011;42545;50.054;8.306;2022-07-29T01:05:24;2.85;;;1.55;;
56670;SDS011;42545;50.054;8.306;2022-07-29T01:07:54;2.45;;;1.50;;
56670;SDS011;42545;50.054;8.306;2022-07-29T01:10:23;4.40;;;1.67;;
56670;SDS011;42545;50.054;8.306;2022-07-29T01:12:52;3.45;;;1.70;;
56670;SDS011;42545;50.054;8.306;2022-07-29T01:15:23;3.42;;;1.60;;
56670;SDS011;42545;50.054;8.306;2022-07-29T01:17:52;2.60;;;1.52;;
56670;SDS011;42545;50.054;8.306;2022-07-29T01:20:31;2.13;;;1.58;;
56670;SDS011;42545;50.054;8.306;2022-07-29T01:23:23;4.93;;;1.58;;
56670;SDS011;42545;50.054;8.306;2022-07-29T01:26:15;5.43;;;2.20;;
56670;SDS011;42545;50.054;8.306;2022-07-29T01:28:57;3.92;;;2.13;;
56670;SDS011;42545;50.054;8.306;2022-07-29T01:31:30;7.30;;;2.13;;
56670;SDS011;42545;50.054;8.306;2022-07-29T01:34:01;2.95;;;1.80;;
56670;SDS011;42545;50.054;8.306;2022-07-29T01:36:33;3.90;;;1.90;;
56670;SDS011;42545;50.054;8.306;2022-07-29T01:39:06;2.10;;;1.80;;
56670;SDS011;42545;50.054;8.306;2022-07-29T01:41:36;2.72;;;1.75;;
56670;SDS011;42545;50.054;8.306;2022-07-29T01:44:11;2.08;;;1.50;;
56670;SDS011;42545;50.054;8.306;2022-07-29T01:46:43;1.60;;;1.48;;
56670;SDS011;42545;50.054;8.306;2022-07-29T01:49:17;4.72;;;1.70;;
56670;SDS011;42545;50.054;8.306;2022-07-29T01:51:47;2.25;;;1.50;;
56670;SDS011;42545;50.054;8.306;2022-07-29T01:54:18;2.17;;;1.60;;
56670;SDS011;42545;50.054;8.306;2022-07-29T01:56:48;2.28;;;1.48;;
56670;SDS011;42545;50.054;8.306;2022-07-29T02:01:46;1.52;;;1.42;;
56670;SDS011;42545;50.054;8.306;2022-07-29T02:06:45;1.70;;;1.52;;
56670;SDS011;42545;50.054;8.306;2022-07-29T02:09:15;1.80;;;1.40;;
56670;SDS011;42545;50.054;8.306;2022-07-29T02:11:53;1.55;;;1.45;;
56670;SDS011;42545;50.054;8.306;2022-07-29T02:14:23;1.73;;;1.58;;
56670;SDS011;42545;50.054;8.306;2022-07-29T02:16:53;2.20;;;1.50;;
56670;SDS011;42545;50.054;8.306;2022-07-29T02:19:23;3.00;;;1.65;;
56670;SDS011;42545;50.054;8.306;2022-07-29T02:24:23;1.77;;;1.50;;
56670;SDS011;42545;50.054;8.306;2022-07-29T02:26:52;2.15;;;1.95;;
56670;SDS011;42545;50.054;8.306;2022-07-29T02:29:23;2.65;;;2.08;;
56670;SDS011;42545;50.054;8.306;2022-07-29T02:31:53;4.03;;;2.35;;
56670;SDS011;42545;50.054;8.306;2022-07-29T02:34:23;1.87;;;1.77;;
56670;SDS011;42545;50.054;8.306;2022-07-29T02:36:50;2.13;;;1.90;;
56670;SDS011;42545;50.054;8.306;2022-07-29T02:39:20;4.95;;;2.20;;
56670;SDS011;42545;50.054;8.306;2022-07-29T02:41:52;4.00;;;3.03;;
56670;SDS011;42545;50.054;8.306;2022-07-29T02:44:25;3.33;;;2.83;;
56670;SDS011;42545;50.054;8.306;2022-07-29T02:46:55;3.40;;;2.78;;
56670;SDS011;42545;50.054;8.306;2022-07-29T02:49:32;4.28;;;2.58;;
56670;SDS011;42545;50.054;8.306;2022-07-29T02:52:04;4.05;;;2.70;;
56670;SDS011;42545;50.054;8.306;2022-07-29T02:54:37;2.55;;;2.28;;
56670;SDS011;42545;50.054;8.306;2022-07-29T02:57:09;3.35;;;2.40;;
56670;SDS011;42545;50.054;8.306;2022-07-29T02:59:49;4.63;;;2.50;;
56670;SDS011;42545;50.054;8.306;2022-07-29T03:02:18;4.57;;;2.58;;
56670;SDS011;42545;50.054;8.306;2022-07-29T03:04:50;5.10;;;2.53;;
56670;SDS011;42545;50.054;8.306;2022-07-29T03:07:19;3.72;;;2.30;;
56670;SDS011;42545;50.054;8.306;2022-07-29T03:09:47;2.42;;;2.05;;
56670;SDS011;42545;50.054;8.306;2022-07-29T03:12:16;3.40;;;2.40;;
56670;SDS011;42545;50.054;8.306;2022-07-29T03:14:44;3.55;;;2.28;;
56670;SDS011;42545;50.054;8.306;2022-07-29T03:17:14;3.13;;;2.10;;
56670;SDS011;42545;50.054;8.306;2022-07-29T03:19:41;4.60;;;2.53;;
56670;SDS011;42545;50.054;8.306;2022-07-29T03:22:08;3.53;;;2.40;;
56670;SDS011;42545;50.054;8.306;2022-07-29T03:24:36;3.60;;;2.38;;
56670;SDS011;42545;50.054;8.306;2022-07-29T03:27:03;3.40;;;2.40;;
56670;SDS011;42545;50.054;8.306;2022-07-29T03:29:31;4.40;;;2.60;;
56670;SDS011;42545;50.054;8.306;2022-07-29T03:31:59;4.07;;;3.22;;
56670;SDS011;42545;50.054;8.306;2022-07-29T03:34:29;4.95;;;2.95;;
56670;SDS011;42545;50.054;8.306;2022-07-29T03:36:56;3.60;;;2.60;;
56670;SDS011;42545;50.054;8.306;2022-07-29T03:39:24;4.75;;;2.70;;
56670;SDS011;42545;50.054;8.306;2022-07-29T03:41:55;3.50;;;2.63;;
56670;SDS011;42545;50.054;8.306;2022-07-29T03:44:26;3.85;;;2.60;;
56670;SDS011;42545;50.054;8.306;2022-07-29T03:46:55;2.85;;;2.10;;
56670;SDS011;42545;50.054;8.306;2022-07-29T03:49:25;2.88;;;2.05;;
56670;SDS011;42545;50.054;8.306;2022-07-29T03:51:55;2.47;;;1.98;;
56670;SDS011;42545;50.054;8.306;2022-07-29T03:54:23;2.30;;;1.98;;
56670;SDS011;42545;50.054;8.306;2022-07-29T03:56:50;2.60;;;1.90;;
56670;SDS011;42545;50.054;8.306;2022-07-29T03:59:19;2.83;;;1.90;;
56670;SDS011;42545;50.054;8.306;2022-07-29T04:01:47;2.40;;;1.70;;
56670;SDS011;42545;50.054;8.306;2022-07-29T04:04:15;2.70;;;2.15;;
56670;SDS011;42545;50.054;8.306;2022-07-29T04:06:45;2.05;;;1.85;;
56670;SDS011;42545;50.054;8.306;2022-07-29T04:09:12;3.50;;;1.90;;
56670;SDS011;42545;50.054;8.306;2022-07-29T04:11:39;2.58;;;1.80;;
56670;SDS011;42545;50.054;8.306;2022-07-29T04:14:07;2.05;;;1.80;;
56670;SDS011;42545;50.054;8.306;2022-07-29T04:16:33;3.33;;;2.42;;
56670;SDS011;42545;50.054;8.306;2022-07-29T04:19:00;6.07;;;2.42;;
56670;SDS011;42545;50.054;8.306;2022-07-29T04:21:29;3.08;;;2.25;;
56670;SDS011;42545;50.054;8.306;2022-07-29T04:23:57;4.25;;;2.60;;
56670;SDS011;42545;50.054;8.306;2022-07-29T04:26:25;3.42;;;2.30;;
56670;SDS011;42545;50.054;8.306;2022-07-29T04:28:52;4.15;;;2.85;;
56670;SDS011;42545;50.054;8.306;2022-07-29T04:31:19;4.43;;;2.67;;
56670;SDS011;42545;50.054;8.306;2022-07-29T04:33:45;4.15;;;2.97;;
56670;SDS011;42545;50.054;8.306;2022-07-29T04:36:13;4.20;;;2.50;;
56670;SDS011;42545;50.054;8.306;2022-07-29T04:38:39;2.75;;;2.20;;
56670;SDS011;42545;50.054;8.306;2022-07-29T04:41:08;3.05;;;2.30;;
56670;SDS011;42545;50.054;8.306;2022-07-29T04:43:35;4.15;;;3.13;;
56670;SDS011;42545;50.054;8.306;2022-07-29T04:46:03;3.22;;;2.63;;
56670;SDS011;42545;50.054;8.306;2022-07-29T04:48:32;3.65;;;2.75;;
56670;SDS011;42545;50.054;8.306;2022-07-29T04:50:59;4.60;;;2.63;;
56670;SDS011;42545;50.054;8.306;2022-07-29T04:53:25;4.15;;;2.65;;
56670;SDS011;42545;50.054;8.306;2022-07-29T04:55:52;5.10;;;3.10;;
56670;SDS011;42545;50.054;8.306;2022-07-29T04:58:21;3.33;;;2.38;;
56670;SDS011;42545;50.054;8.306;2022-07-29T05:00:48;7.87;;;3.80;;
56670;SDS011;42545;50.054;8.306;2022-07-29T05:03:15;3.00;;;2.40;;
56670;SDS011;42545;50.054;8.306;2022-07-29T05:05:42;3.40;;;2.70;;
56670;SDS011;42545;50.054;8.306;2022-07-29T05:08:09;2.92;;;2.10;;
56670;SDS011;42545;50.054;8.306;2022-07-29T05:10:36;2.78;;;2.40;;
56670;SDS011;42545;50.054;8.306;2022-07-29T05:13:03;2.75;;;2.13;;
56670;SDS011;42545;50.054;8.306;2022-07-29T05:15:32;2.75;;;1.98;;
56670;SDS011;42545;50.054;8.306;2022-07-29T05:17:59;2.08;;;1.80;;
56670;SDS011;42545;50.054;8.306;2022-07-29T05:20:31;2.10;;;1.80;;
56670;SDS011;42545;50.054;8.306;2022-07-29T05:22:59;1.92;;;1.70;;
56670;SDS011;42545;50.054;8.306;2022-07-29T05:25:28;1.65;;;1.50;;
56670;SDS011;42545;50.054;8.306;2022-07-29T05:27:56;1.73;;;1.50;;
56670;SDS011;42545;50.054;8.306;2022-07-29T05:30:25;2.40;;;1.42;;
56670;SDS011;42545;50.054;8.306;2022-07-29T05:32:54;1.80;;;1.60;;
56670;SDS011;42545;50.054;8.306;2022-07-29T05:35:23;2.30;;;1.98;;
56670;SDS011;42545;50.054;8.306;2022-07-29T05:37:50;2.50;;;1.70;;
56670;SDS011;42545;50.054;8.306;2022-07-29T05:40:17;1.80;;;1.60;;
56670;SDS011;42545;50.054;8.306;2022-07-29T05:42:44;1.77;;;1.50;;
56670;SDS011;42545;50.054;8.306;2022-07-29T05:45:11;2.42;;;1.60;;
56670;SDS011;42545;50.054;8.306;2022-07-29T05:47:37;2.25;;;1.70;;
56670;SDS011;42545;50.054;8.306;2022-07-29T05:50:06;2.15;;;1.70;;
56670;SDS011;42545;50.054;8.306;2022-07-29T05:52:35;2.92;;;2.15;;
56670;SDS011;42545;50.054;8.306;2022-07-29T05:55:03;3.42;;;2.08;;
56670;SDS011;42545;50.054;8.306;2022-07-29T05:57:31;3.97;;;1.98;;
56670;SDS011;42545;50.054;8.306;2022-07-29T05:59:59;2.90;;;1.90;;
56670;SDS011;42545;50.054;8.306;2022-07-29T06:02:25;2.05;;;1.85;;
56670;SDS011;42545;50.054;8.306;2022-07-29T06:04:54;2.80;;;2.03;;
56670;SDS011;42545;50.054;8.306;2022-07-29T06:07:22;2.55;;;1.90;;
56670;SDS011;42545;50.054;8.306;2022-07-29T06:09:48;3.85;;;2.30;;
56670;SDS011;42545;50.054;8.306;2022-07-29T06:12:15;3.58;;;2.10;;
56670;SDS011;42545;50.054;8.306;2022-07-29T06:14:45;5.47;;;2.40;;
56670;SDS011;42545;50.054;8.306;2022-07-29T06:17:11;3.28;;;2.00;;
56670;SDS011;42545;50.054;8.306;2022-07-29T06:19:38;2.20;;;1.60;;
56670;SDS011;42545;50.054;8.306;2022-07-29T06:22:05;2.50;;;1.80;;
56670;SDS011;42545;50.054;8.306;2022-07-29T06:24:33;2.30;;;1.92;;
56670;SDS011;42545;50.054;8.306;2022-07-29T06:27:02;2.88;;;1.70;;
56670;SDS011;42545;50.054;8.306;2022-07-29T06:29:29;3.70;;;1.95;;
56670;SDS011;42545;50.054;8.306;2022-07-29T06:31:56;2.88;;;1.85;;
56670;SDS011;42545;50.054;8.306;2022-07-29T06:34:22;2.70;;;1.88;;
56670;SDS011;42545;50.054;8.306;2022-07-29T06:36:49;2.72;;;1.80;;
56670;SDS011;42545;50.054;8.306;2022-07-29T06:39:17;3.33;;;1.75;;
56670;SDS011;42545;50.054;8.306;2022-07-29T06:41:47;4.10;;;1.95;;
56670;SDS011;42545;50.054;8.306;2022-07-29T06:44:15;3.55;;;1.88;;
56670;SDS011;42545;50.054;8.306;2022-07-29T06:46:42;3.88;;;1.90;;
56670;SDS011;42545;50.054;8.306;2022-07-29T06:49:09;3.22;;;1.92;;
56670;SDS011;42545;50.054;8.306;2022-07-29T06:51:37;4.47;;;1.77;;
56670;SDS011;42545;50.054;8.306;2022-07-29T06:54:04;2.65;;;1.90;;
56670;SDS011;42545;50.054;8.306;2022-07-29T06:56:31;6.93;;;2.65;;
56670;SDS011;42545;50.054;8.306;2022-07-29T06:59:02;2.53;;;2.13;;
56670;SDS011;42545;50.054;8.306;2022-07-29T07:01:28;3.72;;;2.10;;
56670;SDS011;42545;50.054;8.306;2022-07-29T07:03:55;3.10;;;1.90;;
56670;SDS011;42545;50.054;8.306;2022-07-29T07:06:22;3.15;;;2.03;;
56670;SDS011;42545;50.054;8.306;2022-07-29T07:08:50;3.65;;;2.00;;
56670;SDS011;42545;50.054;8.306;2022-07-29T07:11:16;3.05;;;1.95;;
56670;SDS011;42545;50.054;8.306;2022-07-29T07:13:43;5.25;;;1.95;;
56670;SDS011;42545;50.054;8.306;2022-07-29T07:16:11;3.80;;;1.92;;
56670;SDS011;42545;50.054;8.306;2022-07-29T07:18:38;4.53;;;1.90;;
56670;SDS011;42545;50.054;8.306;2022-07-29T07:21:06;2.65;;;1.73;;
56670;SDS011;42545;50.054;8.306;2022-07-29T07:23:33;3.63;;;2.10;;
56670;SDS011;42545;50.054;8.306;2022-07-29T07:26:01;3.78;;;2.15;;
56670;SDS011;42545;50.054;8.306;2022-07-29T07:28:28;3.83;;;2.13;;
56670;SDS011;42545;50.054;8.306;2022-07-29T07:30:55;2.83;;;2.00;;
56670;SDS011;42545;50.054;8.306;2022-07-29T07:33:23;3.58;;;1.90;;
56670;SDS011;42545;50.054;8.306;2022-07-29T07:35:50;3.17;;;1.98;;
56670;SDS011;42545;50.054;8.306;2022-07-29T07:38:17;6.05;;;2.28;;
56670;SDS011;42545;50.054;8.306;2022-07-29T07:40:44;4.13;;;2.20;;
56670;SDS011;42545;50.054;8.306;2022-07-29T07:43:11;2.92;;;2.00;;
56670;SDS011;42545;50.054;8.306;2022-07-29T07:45:38;4.60;;;2.30;;
56670;SDS011;42545;50.054;8.306;2022-07-29T07:48:05;4.68;;;2.20;;
56670;SDS011;42545;50.054;8.306;2022-07-29T07:50:33;4.38;;;2.10;;
56670;SDS011;42545;50.054;8.306;2022-07-29T07:53:00;4.35;;;2.33;;
56670;SDS011;42545;50.054;8.306;2022-07-29T07:55:27;4.35;;;2.22;;
56670;SDS011;42545;50.054;8.306;2022-07-29T07:57:55;4.35;;;2.13;;
56670;SDS011;42545;50.054;8.306;2022-07-29T08:00:22;4.30;;;2.30;;
56670;SDS011;42545;50.054;8.306;2022-07-29T08:02:49;3.63;;;2.10;;
56670;SDS011;42545;50.054;8.306;2022-07-29T08:05:16;5.05;;;2.30;;
56670;SDS011;42545;50.054;8.306;2022-07-29T08:07:45;3.90;;;2.20;;
56670;SDS011;42545;50.054;8.306;2022-07-29T08:10:13;2.67;;;2.08;;
56670;SDS011;42545;50.054;8.306;2022-07-29T08:12:40;5.00;;;2.38;;
56670;SDS011;42545;50.054;8.306;2022-07-29T08:15:07;3.78;;;2.17;;
56670;SDS011;42545;50.054;8.306;2022-07-29T08:17:34;3.35;;;1.98;;
56670;SDS011;42545;50.054;8.306;2022-07-29T08:20:01;3.72;;;2.05;;
56670;SDS011;42545;50.054;8.306;2022-07-29T08:22:28;3.42;;;1.90;;
56670;SDS011;42545;50.054;8.306;2022-07-29T08:24:56;4.38;;;2.58;;
56670;SDS011;42545;50.054;8.306;2022-07-29T08:27:23;4.70;;;2.50;;
56670;SDS011;42545;50.054;8.306;2022-07-29T08:29:51;3.63;;;2.10;;
56670;SDS011;42545;50.054;8.306;2022-07-29T08:32:18;3.95;;;2.13;;
56670;SDS011;42545;50.054;8.306;2022-07-29T08:34:45;2.03;;;1.83;;
56670;SDS011;42545;50.054;8.306;2022-07-29T08:37:12;4.70;;;2.13;;
56670;SDS011;42545;50.054;8.306;2022-07-29T08:39:39;6.00;;;2.65;;
56670;SDS011;42545;50.054;8.306;2022-07-29T08:42:08;3.83;;;2.50;;
56670;SDS011;42545;50.054;8.306;2022-07-29T08:44:35;2.67;;;1.90;;
56670;SDS011;42545;50.054;8.306;2022-07-29T08:47:03;4.25;;;2.28;;
56670;SDS011;42545;50.054;8.306;2022-07-29T08:49:32;3.50;;;2.20;;
56670;SDS011;42545;50.054;8.306;2022-07-29T08:51:59;5.33;;;2.10;;
56670;SDS011;42545;50.054;8.306;2022-07-29T08:54:26;4.32;;;2.25;;
56670;SDS011;42545;50.054;8.306;2022-07-29T08:56:54;4.25;;;2.25;;
56670;SDS011;42545;50.054;8.306;2022-07-29T08:59:24;3.20;;;2.03;;
56670;SDS011;42545;50.054;8.306;2022-07-29T09:01:53;3.63;;;2.35;;
56670;SDS011;42545;50.054;8.306;2022-07-29T09:04:21;2.55;;;2.10;;
56670;SDS011;42545;50.054;8.306;2022-07-29T09:06:54;4.15;;;2.17;;
56670;SDS011;42545;50.054;8.306;2022-07-29T09:09:26;3.40;;;2.25;;
56670;SDS011;42545;50.054;8.306;2022-07-29T09:11:53;3.63;;;2.20;;
56670;SDS011;42545;50.054;8.306;2022-07-29T09:14:20;3.67;;;2.20;;
56670;SDS011;42545;50.054;8.306;2022-07-29T09:16:49;5.65;;;2.40;;
56670;SDS011;42545;50.054;8.306;2022-07-29T09:19:19;3.30;;;2.47;;
56670;SDS011;42545;50.054;8.306;2022-07-29T09:21:47;3.35;;;2.25;;
56670;SDS011;42545;50.054;8.306;2022-07-29T09:24:27;5.28;;;2.80;;
56670;SDS011;42545;50.054;8.306;2022-07-29T09:27:08;2.67;;;2.17;;
56670;SDS011;42545;50.054;8.306;2022-07-29T09:29:36;3.83;;;2.33;;
56670;SDS011;42545;50.054;8.306;2022-07-29T09:32:08;5.40;;;2.40;;
56670;SDS011;42545;50.054;8.306;2022-07-29T09:34:37;3.25;;;2.30;;
56670;SDS011;42545;50.054;8.306;2022-07-29T09:37:04;4.40;;;2.42;;
56670;SDS011;42545;50.054;8.306;2022-07-29T09:39:31;2.35;;;2.00;;
56670;SDS011;42545;50.054;8.306;2022-07-29T09:42:01;3.95;;;2.30;;
56670;SDS011;42545;50.054;8.306;2022-07-29T09:44:43;3.08;;;2.05;;
56670;SDS011;42545;50.054;8.306;2022-07-29T09:47:14;2.28;;;1.90;;
56670;SDS011;42545;50.054;8.306;2022-07-29T09:49:51;4.22;;;2.33;;
56670;SDS011;42545;50.054;8.306;2022-07-29T09:52:23;3.50;;;2.20;;
56670;SDS011;42545;50.054;8.306;2022-07-29T09:54:50;5.45;;;2.30;;
56670;SDS011;42545;50.054;8.306;2022-07-29T09:57:22;6.72;;;2.70;;
56670;SDS011;42545;50.054;8.306;2022-07-29T09:59:55;4.03;;;2.55;;
56670;SDS011;42545;50.054;8.306;2022-07-29T10:02:28;4.22;;;2.47;;
56670;SDS011;42545;50.054;8.306;2022-07-29T10:04:57;4.53;;;2.55;;
56670;SDS011;42545;50.054;8.306;2022-07-29T10:07:24;4.70;;;2.45;;
56670;SDS011;42545;50.054;8.306;2022-07-29T10:09:55;6.47;;;2.45;;
56670;SDS011;42545;50.054;8.306;2022-07-29T10:12:23;3.28;;;2.47;;
56670;SDS011;42545;50.054;8.306;2022-07-29T10:14:51;6.68;;;2.58;;
56670;SDS011;42545;50.054;8.306;2022-07-29T10:17:18;2.85;;;2.03;;
56670;SDS011;42545;50.054;8.306;2022-07-29T10:19:46;4.22;;;2.60;;
56670;SDS011;42545;50.054;8.306;2022-07-29T10:22:14;6.05;;;2.92;;
56670;SDS011;42545;50.054;8.306;2022-07-29T10:24:42;3.80;;;2.10;;
56670;SDS011;42545;50.054;8.306;2022-07-29T10:27:10;4.15;;;2.20;;
56670;SDS011;42545;50.054;8.306;2022-07-29T10:29:37;2.95;;;2.45;;
56670;SDS011;42545;50.054;8.306;2022-07-29T10:32:10;8.35;;;2.95;;
56670;SDS011;42545;50.054;8.306;2022-07-29T10:34:55;3.28;;;2.28;;
56670;SDS011;42545;50.054;8.306;2022-07-29T10:37:35;4.50;;;2.65;;
56670;SDS011;42545;50.054;8.306;2022-07-29T10:40:15;6.30;;;2.25;;
56670;SDS011;42545;50.054;8.306;2022-07-29T10:43:14;4.07;;;2.80;;
56670;SDS011;42545;50.054;8.306;2022-07-29T10:45:45;3.17;;;2.30;;
56670;SDS011;42545;50.054;8.306;2022-07-29T10:48:14;4.67;;;3.00;;
56670;SDS011;42545;50.054;8.306;2022-07-29T10:50:57;4.13;;;2.42;;
56670;SDS011;42545;50.054;8.306;2022-07-29T10:53:25;3.58;;;2.53;;
56670;SDS011;42545;50.054;8.306;2022-07-29T10:56:24;4.93;;;2.50;;
56670;SDS011;42545;50.054;8.306;2022-07-29T11:01:51;4.75;;;2.45;;
56670;SDS011;42545;50.054;8.306;2022-07-29T11:04:31;4.55;;;2.60;;
56670;SDS011;42545;50.054;8.306;2022-07-29T11:07:28;3.60;;;2.78;;
56670;SDS011;42545;50.054;8.306;2022-07-29T11:12:51;3.55;;;2.50;;
56670;SDS011;42545;50.054;8.306;2022-07-29T11:15:19;3.73;;;2.60;;
56670;SDS011;42545;50.054;8.306;2022-07-29T11:18:03;3.38;;;2.67;;
56670;SDS011;42545;50.054;8.306;2022-07-29T11:20:32;4.20;;;2.15;;
56670;SDS011;42545;50.054;8.306;2022-07-29T11:23:01;2.83;;;2.10;;
56670;SDS011;42545;50.054;8.306;2022-07-29T11:25:43;4.00;;;2.38;;
56670;SDS011;42545;50.054;8.306;2022-07-29T11:28:13;4.30;;;2.45;;
56670;SDS011;42545;50.054;8.306;2022-07-29T11:30:47;2.88;;;2.60;;
56670;SDS011;42545;50.054;8.306;2022-07-29T11:33:26;3.67;;;2.58;;
56670;SDS011;42545;50.054;8.306;2022-07-29T11:36:08;4.83;;;2.70;;
56670;SDS011;42545;50.054;8.306;2022-07-29T11:38:42;4.18;;;2.63;;
56670;SDS011;42545;50.054;8.306;2022-07-29T11:41:21;4.25;;;2.55;;
56670;SDS011;42545;50.054;8.306;2022-07-29T11:43:51;4.68;;;2.25;;
56670;SDS011;42545;50.054;8.306;2022-07-29T11:48:59;3.50;;;2.70;;
56670;SDS011;42545;50.054;8.306;2022-07-29T11:51:26;3.17;;;2.25;;
56670;SDS011;42545;50.054;8.306;2022-07-29T11:53:53;3.58;;;2.53;;
56670;SDS011;42545;50.054;8.306;2022-07-29T11:56:21;3.80;;;2.97;;
56670;SDS011;42545;50.054;8.306;2022-07-29T11:59:02;3.83;;;2.45;;
56670;SDS011;42545;50.054;8.306;2022-07-29T12:01:30;3.00;;;2.50;;
56670;SDS011;42545;50.054;8.306;2022-07-29T12:04:02;2.78;;;2.28;;
56670;SDS011;42545;50.054;8.306;2022-07-29T12:06:30;3.47;;;2.40;;
56670;SDS011;42545;50.054;8.306;2022-07-29T12:08:57;3.30;;;2.10;;
56670;SDS011;42545;50.054;8.306;2022-07-29T12:11:24;4.10;;;2.45;;
56670;SDS011;42545;50.054;8.306;2022-07-29T12:13:51;4.00;;;2.63;;
56670;SDS011;42545;50.054;8.306;2022-07-29T12:16:21;3.13;;;2.30;;
56670;SDS011;42545;50.054;8.306;2022-07-29T12:18:54;2.58;;;2.08;;
56670;SDS011;42545;50.054;8.306;2022-07-29T12:21:22;2.72;;;2.38;;
56670;SDS011;42545;50.054;8.306;2022-07-29T12:23:51;5.22;;;2.78;;
56670;SDS011;42545;50.054;8.306;2022-07-29T12:26:19;3.30;;;2.40;;
56670;SDS011;42545;50.054;8.306;2022-07-29T12:28:47;3.70;;;2.35;;
56670;SDS011;42545;50.054;8.306;2022-07-29T12:31:14;4.03;;;2.63;;
56670;SDS011;42545;50.054;8.306;2022-07-29T12:33:43;2.85;;;2.38;;
56670;SDS011;42545;50.054;8.306;2022-07-29T12:36:18;3.88;;;2.38;;
56670;SDS011;42545;50.054;8.306;2022-07-29T12:38:45;4.20;;;2.30;;
56670;SDS011;42545;50.054;8.306;2022-07-29T12:41:12;2.92;;;2.20;;
56670;SDS011;42545;50.054;8.306;2022-07-29T12:43:48;2.88;;;2.30;;
56670;SDS011;42545;50.054;8.306;2022-07-29T12:46:18;4.50;;;2.75;;
56670;SDS011;42545;50.054;8.306;2022-07-29T12:48:49;3.15;;;2.60;;
56670;SDS011;42545;50.054;8.306;2022-07-29T12:51:25;2.50;;;2.00;;
56670;SDS011;42545;50.054;8.306;2022-07-29T12:54:03;2.67;;;2.28;;
56670;SDS011;42545;50.054;8.306;2022-07-29T12:56:33;3.40;;;2.22;;
56670;SDS011;42545;50.054;8.306;2022-07-29T12:59:04;2.95;;;2.60;;
56670;SDS011;42545;50.054;8.306;2022-07-29T13:04:08;2.60;;;2.35;;
56670;SDS011;42545;50.054;8.306;2022-07-29T13:06:36;3.37;;;2.50;;
56670;SDS011;42545;50.054;8.306;2022-07-29T13:09:06;6.13;;;3.20;;
56670;SDS011;42545;50.054;8.306;2022-07-29T13:11:37;2.40;;;2.20;;
56670;SDS011;42545;50.054;8.306;2022-07-29T13:14:06;3.00;;;2.38;;
56670;SDS011;42545;50.054;8.306;2022-07-29T13:16:35;6.38;;;2.83;;
56670;SDS011;42545;50.054;8.306;2022-07-29T13:19:03;4.53;;;2.88;;
56670;SDS011;42545;50.054;8.306;2022-07-29T13:21:33;3.80;;;2.80;;
56670;SDS011;42545;50.054;8.306;2022-07-29T13:24:01;6.18;;;2.83;;
56670;SDS011;42545;50.054;8.306;2022-07-29T13:26:27;3.83;;;2.58;;
56670;SDS011;42545;50.054;8.306;2022-07-29T13:28:54;4.07;;;2.40;;
56670;SDS011;42545;50.054;8.306;2022-07-29T13:31:23;3.25;;;2.30;;
56670;SDS011;42545;50.054;8.306;2022-07-29T13:33:50;2.97;;;2.58;;
56670;SDS011;42545;50.054;8.306;2022-07-29T13:36:17;4.40;;;2.70;;
56670;SDS011;42545;50.054;8.306;2022-07-29T13:38:48;4.20;;;2.85;;
56670;SDS011;42545;50.054;8.306;2022-07-29T13:41:15;5.43;;;2.95;;
56670;SDS011;42545;50.054;8.306;2022-07-29T13:43:42;4.47;;;3.00;;
56670;SDS011;42545;50.054;8.306;2022-07-29T13:46:09;3.35;;;2.60;;
56670;SDS011;42545;50.054;8.306;2022-07-29T13:48:36;3.05;;;2.65;;
56670;SDS011;42545;50.054;8.306;2022-07-29T13:51:04;4.22;;;3.10;;
56670;SDS011;42545;50.054;8.306;2022-07-29T13:53:32;3.30;;;2.80;;
56670;SDS011;42545;50.054;8.306;2022-07-29T13:56:00;4.10;;;2.78;;
56670;SDS011;42545;50.054;8.306;2022-07-29T13:58:27;4.13;;;2.90;;
56670;SDS011;42545;50.054;8.306;2022-07-29T14:00:54;4.57;;;2.67;;
56670;SDS011;42545;50.054;8.306;2022-07-29T14:03:26;4.28;;;2.60;;
56670;SDS011;42545;50.054;8.306;2022-07-29T14:05:52;3.85;;;2.92;;
56670;SDS011;42545;50.054;8.306;2022-07-29T14:08:21;3.90;;;2.70;;
56670;SDS011;42545;50.054;8.306;2022-07-29T14:10:48;5.45;;;2.65;;
56670;SDS011;42545;50.054;8.306;2022-07-29T14:13:16;3.47;;;2.70;;
56670;SDS011;42545;50.054;8.306;2022-07-29T14:15:43;3.47;;;2.72;;
56670;SDS011;42545;50.054;8.306;2022-07-29T14:18:10;6.10;;;2.70;;
56670;SDS011;42545;50.054;8.306;2022-07-29T14:20:36;3.40;;;2.60;;
56670;SDS011;42545;50.054;8.306;2022-07-29T14:23:03;5.63;;;2.95;;
56670;SDS011;42545;50.054;8.306;2022-07-29T14:25:30;7.13;;;3.28;;
56670;SDS011;42545;50.054;8.306;2022-07-29T14:27:57;3.80;;;2.90;;
56670;SDS011;42545;50.054;8.306;2022-07-29T14:30:25;4.30;;;2.88;;
56670;SDS011;42545;50.054;8.306;2022-07-29T14:32:52;4.90;;;3.13;;
56670;SDS011;42545;50.054;8.306;2022-07-29T14:35:19;5.72;;;3.17;;
56670;SDS011;42545;50.054;8.306;2022-07-29T14:37:45;6.05;;;3.10;;
56670;SDS011;42545;50.054;8.306;2022-07-29T14:40:12;4.85;;;3.10;;
56670;SDS011;42545;50.054;8.306;2022-07-29T14:42:39;4.00;;;3.20;;
56670;SDS011;42545;50.054;8.306;2022-07-29T14:45:07;4.53;;;2.65;;
56670;SDS011;42545;50.054;8.306;2022-07-29T14:47:37;6.28;;;2.78;;
56670;SDS011;42545;50.054;8.306;2022-07-29T14:50:04;3.22;;;2.80;;
56670;SDS011;42545;50.054;8.306;2022-07-29T14:52:32;4.95;;;2.83;;
56670;SDS011;42545;50.054;8.306;2022-07-29T14:54:59;5.22;;;2.83;;
56670;SDS011;42545;50.054;8.306;2022-07-29T14:57:26;3.38;;;2.72;;
56670;SDS011;42545;50.054;8.306;2022-07-29T15:02:22;3.53;;;2.58;;
56670;SDS011;42545;50.054;8.306;2022-07-29T15:04:50;3.38;;;2.10;;
56670;SDS011;42545;50.054;8.306;2022-07-29T15:07:17;3.22;;;2.17;;
56670;SDS011;42545;50.054;8.306;2022-07-29T15:09:44;2.85;;;1.98;;
56670;SDS011;42545;50.054;8.306;2022-07-29T15:12:11;2.58;;;2.20;;
56670;SDS011;42545;50.054;8.306;2022-07-29T15:14:38;4.03;;;1.98;;
56670;SDS011;42545;50.054;8.306;2022-07-29T15:17:06;3.08;;;2.38;;
56670;SDS011;42545;50.054;8.306;2022-07-29T15:19:33;3.80;;;2.00;;
56670;SDS011;42545;50.054;8.306;2022-07-29T15:22:01;2.65;;;1.90;;